sensor_id;sensor_type;location;lat;lon;timestamp;pressure;altitude;pressure_sealevel;temperature;humidity
14800;BME280;7491;57.750;11.970;2023-07-29T00:01:55;74629.00;;;-142.11;100.00
14800;BME280;7491;57.750;11.970;2023-07-29T00:04:22;74624.94;;;-142.11;100.00
14800;BME280;7491;57.750;11.970;2023-07-29T00:06:48;74618.84;;;-142.11;100.00
14800;BME280;7491;57.750;11.970;2023-07-29T00:09:15;74616.78;;;-142.11;100.00
14800;BME280;7491;57.750;11.970;2023-07-29T00:11:43;74610.69;;;-142.11;100.00
14800;BME280;7491;57.750;11.970;2023-07-29T00:14:10;74612.72;;;-142.11;100.00
14800;BME280;7491;57.750;11.970;2023-07-29T00:16:37;74612.72;;;-142.11;100.00
14800;BME280;7491;57.750;11.970;2023-07-29T00:19:04;74614.75;;;-142.11;100.00
14800;BME280;7491;57.750;11.970;2023-07-29T00:21:30;74608.63;;;-142.11;100.00
14800;BME280;7491;57.750;11.970;2023-07-29T00:23:57;74610.69;;;-142.11;100.00
14800;BME280;7491;57.750;11.970;2023-07-29T00:26:26;74610.69;;;-142.11;100.00
14800;BME280;7491;57.750;11.970;2023-07-29T00:28:55;74606.59;;;-142.11;100.00
14800;BME280;7491;57.750;11.970;2023-07-29T00:31:22;74606.59;;;-142.11;100.00
14800;BME280;7491;57.750;11.970;2023-07-29T00:33:49;74616.78;;;-142.11;100.00
14800;BME280;7491;57.750;11.970;2023-07-29T00:36:18;74606.59;;;-142.11;100.00
14800;BME280;7491;57.750;11.970;2023-07-29T00:38:45;74612.72;;;-142.11;100.00
14800;BME280;7491;57.750;11.970;2023-07-29T00:41:12;74610.69;;;-142.11;100.00
14800;BME280;7491;57.750;11.970;2023-07-29T00:43:40;74610.69;;;-142.11;100.00
14800;BME280;7491;57.750;11.970;2023-07-29T00:46:08;74608.63;;;-142.11;100.00
14800;BME280;7491;57.750;11.970;2023-07-29T00:48:38;74610.69;;;-142.11;100.00
14800;BME280;7491;57.750;11.970;2023-07-29T00:51:05;74612.72;;;-142.11;100.00
14800;BME280;7491;57.750;11.970;2023-07-29T00:53:32;74606.59;;;-142.11;100.00
14800;BME280;7491;57.750;11.970;2023-07-29T00:55:59;74608.63;;;-142.11;100.00
14800;BME280;7491;57.750;11.970;2023-07-29T00:58:26;74612.72;;;-142.11;100.00
14800;BME280;7491;57.750;11.970;2023-07-29T01:00:54;74608.63;;;-142.11;100.00
14800;BME280;7491;57.750;11.970;2023-07-29T01:03:22;74604.56;;;-142.11;100.00
14800;BME280;7491;57.750;11.970;2023-07-29T01:05:59;74604.56;;;-142.11;100.00
14800;BME280;7491;57.750;11.970;2023-07-29T01:08:33;74596.41;;;-142.11;100.00
14800;BME280;7491;57.750;11.970;2023-07-29T01:11:09;74598.44;;;-142.11;100.00
14800;BME280;7491;57.750;11.970;2023-07-29T01:13:44;74588.25;;;-142.11;100.00
14800;BME280;7491;57.750;11.970;2023-07-29T01:16:17;74586.22;;;-142.11;100.00
14800;BME280;7491;57.750;11.970;2023-07-29T01:18:50;74586.22;;;-142.11;100.00
14800;BME280;7491;57.750;11.970;2023-07-29T01:21:19;74606.59;;;-142.11;100.00
14800;BME280;7491;57.750;11.970;2023-07-29T01:23:52;74604.56;;;-142.11;100.00
14800;BME280;7491;57.750;11.970;2023-07-29T01:26:19;74608.63;;;-142.11;100.00
14800;BME280;7491;57.750;11.970;2023-07-29T01:28:45;74602.53;;;-142.11;100.00
14800;BME280;7491;57.750;11.970;2023-07-29T01:31:18;74604.56;;;-142.11;100.00
14800;BME280;7491;57.750;11.970;2023-07-29T01:33:53;74596.41;;;-142.11;100.00
14800;BME280;7491;57.750;11.970;2023-07-29T01:36:23;74596.41;;;-142.11;100.00
14800;BME280;7491;57.750;11.970;2023-07-29T01:38:56;74602.53;;;-142.11;100.00
14800;BME280;7491;57.750;11.970;2023-07-29T01:41:24;74614.75;;;-142.11;100.00
14800;BME280;7491;57.750;11.970;2023-07-29T01:43:52;74608.63;;;-142.11;100.00
14800;BME280;7491;57.750;11.970;2023-07-29T01:46:20;74614.75;;;-142.11;100.00
14800;BME280;7491;57.750;11.970;2023-07-29T01:48:46;74612.72;;;-142.11;100.00
14800;BME280;7491;57.750;11.970;2023-07-29T01:51:13;74610.69;;;-142.11;100.00
14800;BME280;7491;57.750;11.970;2023-07-29T01:53:40;74618.84;;;-142.11;100.00
14800;BME280;7491;57.750;11.970;2023-07-29T01:56:08;74606.59;;;-142.11;100.00
14800;BME280;7491;57.750;11.970;2023-07-29T01:58:35;74610.69;;;-142.11;100.00
14800;BME280;7491;57.750;11.970;2023-07-29T02:01:02;74608.63;;;-142.11;100.00
14800;BME280;7491;57.750;11.970;2023-07-29T02:03:29;74622.91;;;-142.11;100.00
14800;BME280;7491;57.750;11.970;2023-07-29T02:05:56;74604.56;;;-142.11;100.00
14800;BME280;7491;57.750;11.970;2023-07-29T02:08:22;74602.53;;;-142.11;100.00
14800;BME280;7491;57.750;11.970;2023-07-29T02:10:49;74602.53;;;-142.11;100.00
14800;BME280;7491;57.750;11.970;2023-07-29T02:13:17;74602.53;;;-142.11;100.00
14800;BME280;7491;57.750;11.970;2023-07-29T02:15:44;74608.63;;;-142.11;100.00
14800;BME280;7491;57.750;11.970;2023-07-29T02:18:13;74606.59;;;-142.11;100.00
14800;BME280;7491;57.750;11.970;2023-07-29T02:20:40;74606.59;;;-142.11;100.00
14800;BME280;7491;57.750;11.970;2023-07-29T02:23:14;74596.41;;;-142.11;100.00
14800;BME280;7491;57.750;11.970;2023-07-29T02:25:41;74608.63;;;-142.11;100.00
14800;BME280;7491;57.750;11.970;2023-07-29T02:28:08;74596.41;;;-142.11;100.00
14800;BME280;7491;57.750;11.970;2023-07-29T02:30:36;74606.59;;;-142.11;100.00
14800;BME280;7491;57.750;11.970;2023-07-29T02:33:03;74608.63;;;-142.11;100.00
14800;BME280;7491;57.750;11.970;2023-07-29T02:35:30;74618.84;;;-142.11;100.00
14800;BME280;7491;57.750;11.970;2023-07-29T02:37:57;74620.88;;;-142.11;100.00
14800;BME280;7491;57.750;11.970;2023-07-29T02:40:24;74622.91;;;-142.11;100.00
14800;BME280;7491;57.750;11.970;2023-07-29T02:42:52;74622.91;;;-142.11;100.00
14800;BME280;7491;57.750;11.970;2023-07-29T02:45:18;74618.84;;;-142.11;100.00
14800;BME280;7491;57.750;11.970;2023-07-29T02:47:47;74620.88;;;-142.11;100.00
14800;BME280;7491;57.750;11.970;2023-07-29T02:50:14;74612.72;;;-142.11;100.00
14800;BME280;7491;57.750;11.970;2023-07-29T02:52:40;74614.75;;;-142.11;100.00
14800;BME280;7491;57.750;11.970;2023-07-29T02:55:07;74608.63;;;-142.11;100.00
14800;BME280;7491;57.750;11.970;2023-07-29T02:57:34;74614.75;;;-142.11;100.00
14800;BME280;7491;57.750;11.970;2023-07-29T03:00:01;74612.72;;;-142.11;100.00
14800;BME280;7491;57.750;11.970;2023-07-29T03:02:28;74610.69;;;-142.11;100.00
14800;BME280;7491;57.750;11.970;2023-07-29T03:04:56;74608.63;;;-142.11;100.00
14800;BME280;7491;57.750;11.970;2023-07-29T03:07:23;74618.84;;;-142.11;100.00
14800;BME280;7491;57.750;11.970;2023-07-29T03:09:50;74612.72;;;-142.11;100.00
14800;BME280;7491;57.750;11.970;2023-07-29T03:12:17;74622.91;;;-142.11;100.00
14800;BME280;7491;57.750;11.970;2023-07-29T03:14:47;74616.78;;;-142.11;100.00
14800;BME280;7491;57.750;11.970;2023-07-29T03:17:14;74612.72;;;-142.11;100.00
14800;BME280;7491;57.750;11.970;2023-07-29T03:19:41;74600.50;;;-142.11;100.00
14800;BME280;7491;57.750;11.970;2023-07-29T03:22:09;74608.63;;;-142.11;100.00
14800;BME280;7491;57.750;11.970;2023-07-29T03:24:36;74598.44;;;-142.11;100.00
14800;BME280;7491;57.750;11.970;2023-07-29T03:27:04;74600.50;;;-142.11;100.00
14800;BME280;7491;57.750;11.970;2023-07-29T03:29:32;74584.19;;;-142.11;100.00
14800;BME280;7491;57.750;11.970;2023-07-29T03:31:59;74590.31;;;-142.11;100.00
14800;BME280;7491;57.750;11.970;2023-07-29T03:34:25;74578.06;;;-142.11;100.00
14800;BME280;7491;57.750;11.970;2023-07-29T03:36:52;74571.97;;;-142.11;100.00
14800;BME280;7491;57.750;11.970;2023-07-29T03:39:21;74582.16;;;-142.11;100.00
14800;BME280;7491;57.750;11.970;2023-07-29T03:41:48;74567.88;;;-142.11;100.00
14800;BME280;7491;57.750;11.970;2023-07-29T03:44:15;74565.84;;;-142.11;100.00
14800;BME280;7491;57.750;11.970;2023-07-29T03:46:43;74565.84;;;-142.11;100.00
14800;BME280;7491;57.750;11.970;2023-07-29T03:49:10;74586.22;;;-142.11;100.00
14800;BME280;7491;57.750;11.970;2023-07-29T03:51:37;74586.22;;;-142.11;100.00
14800;BME280;7491;57.750;11.970;2023-07-29T03:54:03;74584.19;;;-142.11;100.00
14800;BME280;7491;57.750;11.970;2023-07-29T03:56:32;74582.16;;;-142.11;100.00
14800;BME280;7491;57.750;11.970;2023-07-29T03:59:02;74582.16;;;-142.11;100.00
14800;BME280;7491;57.750;11.970;2023-07-29T04:01:29;74584.19;;;-142.11;100.00
14800;BME280;7491;57.750;11.970;2023-07-29T04:03:56;74598.44;;;-142.11;100.00
14800;BME280;7491;57.750;11.970;2023-07-29T04:06:23;74598.44;;;-142.11;100.00
14800;BME280;7491;57.750;11.970;2023-07-29T04:08:50;74594.38;;;-142.11;100.00
14800;BME280;7491;57.750;11.970;2023-07-29T04:11:16;74584.19;;;-142.11;100.00
14800;BME280;7491;57.750;11.970;2023-07-29T04:13:45;74574.00;;;-142.11;100.00
14800;BME280;7491;57.750;11.970;2023-07-29T04:16:11;74582.16;;;-142.11;100.00
14800;BME280;7491;57.750;11.970;2023-07-29T04:18:38;74567.88;;;-142.11;100.00
14800;BME280;7491;57.750;11.970;2023-07-29T04:21:05;74561.78;;;-142.11;100.00
14800;BME280;7491;57.750;11.970;2023-07-29T04:23:32;74551.59;;;-142.11;100.00
14800;BME280;7491;57.750;11.970;2023-07-29T04:25:58;74541.41;;;-142.11;100.00
14800;BME280;7491;57.750;11.970;2023-07-29T04:28:25;74553.63;;;-142.11;100.00
14800;BME280;7491;57.750;11.970;2023-07-29T04:30:53;74547.50;;;-142.11;100.00
14800;BME280;7491;57.750;11.970;2023-07-29T04:33:20;74537.31;;;-142.11;100.00
14800;BME280;7491;57.750;11.970;2023-07-29T04:35:47;74533.25;;;-142.11;100.00
14800;BME280;7491;57.750;11.970;2023-07-29T04:38:14;74551.59;;;-142.11;100.00
14800;BME280;7491;57.750;11.970;2023-07-29T04:40:40;74521.03;;;-142.11;100.00
14800;BME280;7491;57.750;11.970;2023-07-29T04:43:07;74512.88;;;-142.11;100.00
14800;BME280;7491;57.750;11.970;2023-07-29T04:45:34;74506.75;;;-142.11;100.00
14800;BME280;7491;57.750;11.970;2023-07-29T04:48:03;74494.53;;;-142.11;100.00
14800;BME280;7491;57.750;11.970;2023-07-29T04:50:30;74492.50;;;-142.11;100.00
14800;BME280;7491;57.750;11.970;2023-07-29T04:52:56;74484.34;;;-142.11;100.00
14800;BME280;7491;57.750;11.970;2023-07-29T04:55:23;74482.31;;;-142.11;100.00
14800;BME280;7491;57.750;11.970;2023-07-29T04:57:50;74494.53;;;-142.11;100.00
14800;BME280;7491;57.750;11.970;2023-07-29T05:00:17;74476.19;;;-142.11;100.00
14800;BME280;7491;57.750;11.970;2023-07-29T05:02:44;74468.06;;;-142.11;100.00
14800;BME280;7491;57.750;11.970;2023-07-29T05:05:12;74453.78;;;-142.11;100.00
14800;BME280;7491;57.750;11.970;2023-07-29T05:07:39;74439.53;;;-142.11;100.00
14800;BME280;7491;57.750;11.970;2023-07-29T05:10:07;74435.44;;;-142.11;100.00
14800;BME280;7491;57.750;11.970;2023-07-29T05:12:34;74439.53;;;-142.11;100.00
14800;BME280;7491;57.750;11.970;2023-07-29T05:15:01;74437.50;;;-142.11;100.00
14800;BME280;7491;57.750;11.970;2023-07-29T05:17:28;74447.69;;;-142.11;100.00
14800;BME280;7491;57.750;11.970;2023-07-29T05:19:54;74425.25;;;-142.11;100.00
14800;BME280;7491;57.750;11.970;2023-07-29T05:22:22;74423.22;;;-142.11;100.00
14800;BME280;7491;57.750;11.970;2023-07-29T05:24:50;74419.16;;;-142.11;100.00
14800;BME280;7491;57.750;11.970;2023-07-29T05:27:17;74421.19;;;-142.11;100.00
14800;BME280;7491;57.750;11.970;2023-07-29T05:29:44;74425.25;;;-142.11;100.00
14800;BME280;7491;57.750;11.970;2023-07-29T05:32:11;74406.94;;;-142.11;100.00
14800;BME280;7491;57.750;11.970;2023-07-29T05:34:37;74413.03;;;-142.11;100.00
14800;BME280;7491;57.750;11.970;2023-07-29T05:37:04;74400.81;;;-142.11;100.00
14800;BME280;7491;57.750;11.970;2023-07-29T05:39:33;74394.69;;;-142.11;100.00
14800;BME280;7491;57.750;11.970;2023-07-29T05:42:00;74380.44;;;-142.11;100.00
14800;BME280;7491;57.750;11.970;2023-07-29T05:44:35;74372.28;;;-142.11;100.00
14800;BME280;7491;57.750;11.970;2023-07-29T05:47:02;74378.41;;;-142.11;100.00
14800;BME280;7491;57.750;11.970;2023-07-29T05:49:32;74368.22;;;-142.11;100.00
14800;BME280;7491;57.750;11.970;2023-07-29T05:51:59;74368.22;;;-142.11;100.00
14800;BME280;7491;57.750;11.970;2023-07-29T05:54:30;74364.13;;;-142.11;100.00
14800;BME280;7491;57.750;11.970;2023-07-29T05:56:59;74356.00;;;-142.11;100.00
14800;BME280;7491;57.750;11.970;2023-07-29T05:59:25;74345.81;;;-142.11;100.00
14800;BME280;7491;57.750;11.970;2023-07-29T06:01:56;74341.72;;;-142.11;100.00
14800;BME280;7491;57.750;11.970;2023-07-29T06:04:30;74323.38;;;-142.11;100.00
14800;BME280;7491;57.750;11.970;2023-07-29T06:06:58;74319.31;;;-142.11;100.00
14800;BME280;7491;57.750;11.970;2023-07-29T06:09:25;74315.25;;;-142.11;100.00
14800;BME280;7491;57.750;11.970;2023-07-29T06:11:52;74311.16;;;-142.11;100.00
14800;BME280;7491;57.750;11.970;2023-07-29T06:14:23;74278.56;;;-142.11;100.00
14800;BME280;7491;57.750;11.970;2023-07-29T06:16:50;74266.34;;;-142.11;100.00
14800;BME280;7491;57.750;11.970;2023-07-29T06:19:20;74256.16;;;-142.11;100.00
14800;BME280;7491;57.750;11.970;2023-07-29T06:21:48;74233.75;;;-142.11;100.00
14800;BME280;7491;57.750;11.970;2023-07-29T06:27:45;74193.00;;;-142.11;100.00
14800;BME280;7491;57.750;11.970;2023-07-29T06:33:46;74209.28;;;-142.11;100.00
14800;BME280;7491;57.750;11.970;2023-07-29T06:36:48;74180.78;;;-142.11;100.00
14800;BME280;7491;57.750;11.970;2023-07-29T06:39:56;74168.56;;;-142.11;100.00
14800;BME280;7491;57.750;11.970;2023-07-29T06:43:29;74188.94;;;-142.11;100.00
14800;BME280;7491;57.750;11.970;2023-07-29T06:49:59;74138.00;;;-142.11;100.00
14800;BME280;7491;57.750;11.970;2023-07-29T06:52:44;74135.97;;;-142.11;100.00
14800;BME280;7491;57.750;11.970;2023-07-29T06:55:49;74119.66;;;-142.11;100.00
14800;BME280;7491;57.750;11.970;2023-07-29T06:58:38;74113.53;;;-142.11;100.00
14800;BME280;7491;57.750;11.970;2023-07-29T07:01:42;74121.69;;;-142.11;100.00
14800;BME280;7491;57.750;11.970;2023-07-29T07:11:23;74087.06;;;-142.11;100.00
14800;BME280;7491;57.750;11.970;2023-07-29T07:14:02;74093.16;;;-142.11;100.00
14800;BME280;7491;57.750;11.970;2023-07-29T07:16:55;74052.44;;;-142.11;100.00
14800;BME280;7491;57.750;11.970;2023-07-29T07:19:37;74054.47;;;-142.11;100.00
14800;BME280;7491;57.750;11.970;2023-07-29T07:22:32;74040.19;;;-142.11;100.00
14800;BME280;7491;57.750;11.970;2023-07-29T07:25:54;74042.25;;;-142.11;100.00
14800;BME280;7491;57.750;11.970;2023-07-29T07:41:37;73999.47;;;-142.11;100.00
14800;BME280;7491;57.750;11.970;2023-07-29T07:48:04;73964.81;;;-142.11;100.00
14800;BME280;7491;57.750;11.970;2023-07-29T08:16:03;73871.13;;;-142.11;100.00
14800;BME280;7491;57.750;11.970;2023-07-29T08:25:49;73893.53;;;-142.11;100.00
14800;BME280;7491;57.750;11.970;2023-07-29T08:32:46;73917.97;;;-142.11;100.00
14800;BME280;7491;57.750;11.970;2023-07-29T08:35:54;73891.50;;;-142.11;100.00
14800;BME280;7491;57.750;11.970;2023-07-29T08:48:57;73858.91;;;-142.11;100.00
14800;BME280;7491;57.750;11.970;2023-07-29T08:51:53;73838.53;;;-142.11;100.00
14800;BME280;7491;57.750;11.970;2023-07-29T08:54:46;73824.25;;;-142.11;100.00
14800;BME280;7491;57.750;11.970;2023-07-29T08:57:39;73856.84;;;-142.11;100.00
14800;BME280;7491;57.750;11.970;2023-07-29T09:00:59;73852.78;;;-142.11;100.00
14800;BME280;7491;57.750;11.970;2023-07-29T09:04:21;73852.78;;;-142.11;100.00
14800;BME280;7491;57.750;11.970;2023-07-29T09:08:12;73873.16;;;-142.11;100.00
14800;BME280;7491;57.750;11.970;2023-07-29T09:10:21;73873.16;;;-142.11;100.00
14800;BME280;7491;57.750;11.970;2023-07-29T09:12:49;73867.03;;;-142.11;100.00
14800;BME280;7491;57.750;11.970;2023-07-29T09:15:26;73856.84;;;-142.11;100.00
14800;BME280;7491;57.750;11.970;2023-07-29T09:17:53;73856.84;;;-142.11;100.00
14800;BME280;7491;57.750;11.970;2023-07-29T09:20:58;73865.00;;;-142.11;100.00
14800;BME280;7491;57.750;11.970;2023-07-29T09:24:18;73877.22;;;-142.11;100.00
14800;BME280;7491;57.750;11.970;2023-07-29T09:27:36;73885.38;;;-142.11;100.00
14800;BME280;7491;57.750;11.970;2023-07-29T09:34:27;73887.41;;;-142.11;100.00
14800;BME280;7491;57.750;11.970;2023-07-29T09:37:09;73852.78;;;-142.11;100.00
14800;BME280;7491;57.750;11.970;2023-07-29T09:39:44;73834.44;;;-142.11;100.00
14800;BME280;7491;57.750;11.970;2023-07-29T09:42:11;73818.16;;;-142.11;100.00
14800;BME280;7491;57.750;11.970;2023-07-29T09:44:38;73830.38;;;-142.11;100.00
14800;BME280;7491;57.750;11.970;2023-07-29T09:47:05;73797.78;;;-142.11;100.00
14800;BME280;7491;57.750;11.970;2023-07-29T09:49:35;73757.03;;;-142.11;100.00
14800;BME280;7491;57.750;11.970;2023-07-29T09:52:03;73750.94;;;-142.11;100.00
14800;BME280;7491;57.750;11.970;2023-07-29T09:54:32;73736.66;;;-142.11;100.00
14800;BME280;7491;57.750;11.970;2023-07-29T09:56:59;73726.47;;;-142.11;100.00
14800;BME280;7491;57.750;11.970;2023-07-29T09:59:33;73730.56;;;-142.11;100.00
14800;BME280;7491;57.750;11.970;2023-07-29T10:02:00;73710.19;;;-142.11;100.00
14800;BME280;7491;57.750;11.970;2023-07-29T10:04:29;73681.66;;;-142.11;100.00
14800;BME280;7491;57.750;11.970;2023-07-29T10:06:57;73679.63;;;-142.11;100.00
14800;BME280;7491;57.750;11.970;2023-07-29T10:09:24;73671.47;;;-142.11;100.00
14800;BME280;7491;57.750;11.970;2023-07-29T10:11:53;73645.00;;;-142.11;100.00
14800;BME280;7491;57.750;11.970;2023-07-29T10:14:21;73628.72;;;-142.11;100.00
14800;BME280;7491;57.750;11.970;2023-07-29T10:16:49;73616.47;;;-142.11;100.00
14800;BME280;7491;57.750;11.970;2023-07-29T10:19:17;73579.81;;;-142.11;100.00
14800;BME280;7491;57.750;11.970;2023-07-29T10:21:46;73577.78;;;-142.11;100.00
14800;BME280;7491;57.750;11.970;2023-07-29T10:24:15;73592.03;;;-142.11;100.00
14800;BME280;7491;57.750;11.970;2023-07-29T10:26:46;73596.13;;;-142.11;100.00
14800;BME280;7491;57.750;11.970;2023-07-29T10:29:16;73592.03;;;-142.11;100.00
14800;BME280;7491;57.750;11.970;2023-07-29T10:31:45;73626.66;;;-142.11;100.00
14800;BME280;7491;57.750;11.970;2023-07-29T10:34:13;73630.75;;;-142.11;100.00
14800;BME280;7491;57.750;11.970;2023-07-29T10:36:40;73647.03;;;-142.11;100.00
14800;BME280;7491;57.750;11.970;2023-07-29T10:39:08;73687.78;;;-142.11;100.00
14800;BME280;7491;57.750;11.970;2023-07-29T10:41:56;73697.97;;;-142.11;100.00
14800;BME280;7491;57.750;11.970;2023-07-29T10:44:56;73687.78;;;-142.11;100.00
14800;BME280;7491;57.750;11.970;2023-07-29T10:47:24;73665.38;;;-142.11;100.00
14800;BME280;7491;57.750;11.970;2023-07-29T10:49:53;73653.16;;;-142.11;100.00
14800;BME280;7491;57.750;11.970;2023-07-29T10:52:37;73634.81;;;-142.11;100.00
14800;BME280;7491;57.750;11.970;2023-07-29T10:55:24;73653.16;;;-142.11;100.00
14800;BME280;7491;57.750;11.970;2023-07-29T10:58:04;73655.19;;;-142.11;100.00
14800;BME280;7491;57.750;11.970;2023-07-29T11:00:33;73649.06;;;-142.11;100.00
14800;BME280;7491;57.750;11.970;2023-07-29T11:03:01;73687.78;;;-142.11;100.00
14800;BME280;7491;57.750;11.970;2023-07-29T11:05:42;73697.97;;;-142.11;100.00
14800;BME280;7491;57.750;11.970;2023-07-29T11:08:16;73691.84;;;-142.11;100.00
14800;BME280;7491;57.750;11.970;2023-07-29T11:10:43;73695.94;;;-142.11;100.00
14800;BME280;7491;57.750;11.970;2023-07-29T11:13:10;73667.41;;;-142.11;100.00
14800;BME280;7491;57.750;11.970;2023-07-29T11:15:40;73632.78;;;-142.11;100.00
14800;BME280;7491;57.750;11.970;2023-07-29T11:18:09;73636.84;;;-142.11;100.00
14800;BME280;7491;57.750;11.970;2023-07-29T11:20:37;73640.94;;;-142.11;100.00
14800;BME280;7491;57.750;11.970;2023-07-29T11:23:03;73647.03;;;-142.11;100.00
14800;BME280;7491;57.750;11.970;2023-07-29T11:25:39;73632.78;;;-142.11;100.00
14800;BME280;7491;57.750;11.970;2023-07-29T11:28:06;73606.31;;;-142.11;100.00
14800;BME280;7491;57.750;11.970;2023-07-29T11:30:40;73620.56;;;-142.11;100.00
14800;BME280;7491;57.750;11.970;2023-07-29T11:33:10;73626.66;;;-142.11;100.00
14800;BME280;7491;57.750;11.970;2023-07-29T11:37:13;73630.75;;;-142.11;100.00
14800;BME280;7491;57.750;11.970;2023-07-29T11:43:18;73606.31;;;-142.11;100.00
14800;BME280;7491;57.750;11.970;2023-07-29T11:49:32;73577.78;;;-142.11;100.00
14800;BME280;7491;57.750;11.970;2023-07-29T11:52:06;73590.00;;;-142.11;100.00
14800;BME280;7491;57.750;11.970;2023-07-29T11:54:49;73583.88;;;-142.11;100.00
14800;BME280;7491;57.750;11.970;2023-07-29T11:58:05;73537.03;;;-142.11;100.00
14800;BME280;7491;57.750;11.970;2023-07-29T12:04:05;73526.84;;;-142.11;100.00
14800;BME280;7491;57.750;11.970;2023-07-29T12:07:12;73559.44;;;-142.11;100.00
14800;BME280;7491;57.750;11.970;2023-07-29T12:10:04;73604.25;;;-142.11;100.00
14800;BME280;7491;57.750;11.970;2023-07-29T12:16:05;73535.00;;;-142.11;100.00
14800;BME280;7491;57.750;11.970;2023-07-29T12:18:47;73518.72;;;-142.11;100.00
14800;BME280;7491;57.750;11.970;2023-07-29T12:21:35;73530.94;;;-142.11;100.00
14800;BME280;7491;57.750;11.970;2023-07-29T12:24:17;73526.84;;;-142.11;100.00
14800;BME280;7491;57.750;11.970;2023-07-29T12:27:00;73539.06;;;-142.11;100.00
14800;BME280;7491;57.750;11.970;2023-07-29T12:36:51;73475.94;;;-142.11;100.00
14800;BME280;7491;57.750;11.970;2023-07-29T12:39:40;73526.84;;;-142.11;100.00
14800;BME280;7491;57.750;11.970;2023-07-29T12:42:21;73530.94;;;-142.11;100.00
14800;BME280;7491;57.750;11.970;2023-07-29T12:45:16;73504.44;;;-142.11;100.00
14800;BME280;7491;57.750;11.970;2023-07-29T12:47:56;73492.22;;;-142.11;100.00
14800;BME280;7491;57.750;11.970;2023-07-29T12:50:32;73465.75;;;-142.11;100.00
14800;BME280;7491;57.750;11.970;2023-07-29T12:53:32;73455.56;;;-142.11;100.00
14800;BME280;7491;57.750;11.970;2023-07-29T12:59:31;73455.56;;;-142.11;100.00
14800;BME280;7491;57.750;11.970;2023-07-29T13:09:35;73473.91;;;-142.11;100.00
14800;BME280;7491;57.750;11.970;2023-07-29T13:12:53;73457.59;;;-142.11;100.00
14800;BME280;7491;57.750;11.970;2023-07-29T13:19:02;73431.13;;;-142.11;100.00
14800;BME280;7491;57.750;11.970;2023-07-29T13:21:39;73433.16;;;-142.11;100.00
14800;BME280;7491;57.750;11.970;2023-07-29T13:24:21;73451.50;;;-142.11;100.00
14800;BME280;7491;57.750;11.970;2023-07-29T13:27:20;73445.38;;;-142.11;100.00
14800;BME280;7491;57.750;11.970;2023-07-29T13:30:11;73437.22;;;-142.11;100.00
14800;BME280;7491;57.750;11.970;2023-07-29T13:36:01;73443.34;;;-142.11;100.00
14800;BME280;7491;57.750;11.970;2023-07-29T13:42:03;73437.22;;;-142.11;100.00
14800;BME280;7491;57.750;11.970;2023-07-29T13:44:47;73455.56;;;-142.11;100.00
14800;BME280;7491;57.750;11.970;2023-07-29T13:47:35;73486.13;;;-142.11;100.00
14800;BME280;7491;57.750;11.970;2023-07-29T14:06:06;73506.50;;;-142.11;100.00
14800;BME280;7491;57.750;11.970;2023-07-29T14:12:33;73457.59;;;-142.11;100.00
14800;BME280;7491;57.750;11.970;2023-07-29T14:15:00;73447.41;;;-142.11;100.00
14800;BME280;7491;57.750;11.970;2023-07-29T14:17:26;73445.38;;;-142.11;100.00
14800;BME280;7491;57.750;11.970;2023-07-29T14:20:10;73441.31;;;-142.11;100.00
14800;BME280;7491;57.750;11.970;2023-07-29T14:22:40;73463.72;;;-142.11;100.00
14800;BME280;7491;57.750;11.970;2023-07-29T14:25:09;73461.69;;;-142.11;100.00
14800;BME280;7491;57.750;11.970;2023-07-29T14:27:37;73469.81;;;-142.11;100.00
14800;BME280;7491;57.750;11.970;2023-07-29T14:30:05;73459.63;;;-142.11;100.00
14800;BME280;7491;57.750;11.970;2023-07-29T14:32:32;73471.88;;;-142.11;100.00
14800;BME280;7491;57.750;11.970;2023-07-29T14:34:59;73477.97;;;-142.11;100.00
14800;BME280;7491;57.750;11.970;2023-07-29T14:37:28;73482.03;;;-142.11;100.00
14800;BME280;7491;57.750;11.970;2023-07-29T14:39:55;73465.75;;;-142.11;100.00
14800;BME280;7491;57.750;11.970;2023-07-29T14:42:22;73441.31;;;-142.11;100.00
14800;BME280;7491;57.750;11.970;2023-07-29T14:44:50;73439.28;;;-142.11;100.00
14800;BME280;7491;57.750;11.970;2023-07-29T14:47:17;73439.28;;;-142.11;100.00
14800;BME280;7491;57.750;11.970;2023-07-29T14:49:44;73437.22;;;-142.11;100.00
14800;BME280;7491;57.750;11.970;2023-07-29T14:52:11;73437.22;;;-142.11;100.00
14800;BME280;7491;57.750;11.970;2023-07-29T14:54:38;73433.16;;;-142.11;100.00
14800;BME280;7491;57.750;11.970;2023-07-29T14:57:07;73441.31;;;-142.11;100.00
14800;BME280;7491;57.750;11.970;2023-07-29T14:59:33;73459.63;;;-142.11;100.00
14800;BME280;7491;57.750;11.970;2023-07-29T15:02:02;73467.78;;;-142.11;100.00
14800;BME280;7491;57.750;11.970;2023-07-29T15:04:28;73457.59;;;-142.11;100.00
14800;BME280;7491;57.750;11.970;2023-07-29T15:06:55;73475.94;;;-142.11;100.00
14800;BME280;7491;57.750;11.970;2023-07-29T15:09:23;73520.75;;;-142.11;100.00
14800;BME280;7491;57.750;11.970;2023-07-29T15:11:50;73486.13;;;-142.11;100.00
14800;BME280;7491;57.750;11.970;2023-07-29T15:14:17;73461.69;;;-142.11;100.00
14800;BME280;7491;57.750;11.970;2023-07-29T15:16:44;73467.78;;;-142.11;100.00
14800;BME280;7491;57.750;11.970;2023-07-29T15:19:12;73469.81;;;-142.11;100.00
14800;BME280;7491;57.750;11.970;2023-07-29T15:21:39;73492.22;;;-142.11;100.00
14800;BME280;7491;57.750;11.970;2023-07-29T15:24:06;73498.34;;;-142.11;100.00
14800;BME280;7491;57.750;11.970;2023-07-29T15:26:32;73492.22;;;-142.11;100.00
14800;BME280;7491;57.750;11.970;2023-07-29T15:29:00;73490.19;;;-142.11;100.00
14800;BME280;7491;57.750;11.970;2023-07-29T15:31:27;73494.25;;;-142.11;100.00